Estación Meteorológica Peña el Pijo (Robertgarden) [ 01/30/23 15:34:51 CET ]

Fecha Hora Presion(HPa) Temp (°C) Humedad % Rocio (°C) Viento ( m/s) Direccion Lluvia 1Hora(mm) Lluvia 24H(mm) LLuvia Total(mm)
2010-Aug-25 01:01:18 1016.500 15.9 59 7.9         152.29
2010-Aug-25 02:01:15 1016.600 14.9 62 7.7         152.29
2010-Aug-25 03:01:17 1016.300 14.4 67 8.3         152.29
2010-Aug-25 04:01:15 1016.200 13.4 71 8.2         152.29
2010-Aug-25 05:01:17 1016.000 13.2 73 8.4         152.29
2010-Aug-25 06:01:18 1015.800 12.8 76 8.7         152.29
2010-Aug-25 07:01:16 1016.000 12.4 75 8.1         152.29
2010-Aug-25 08:01:14 1016.100 12.1 77 8.2         152.29
2010-Aug-25 09:01:16 1016.600 17.6 67 11.4         152.29
2010-Aug-25 10:01:15 1016.500 24.4 49 13.0         152.29
2010-Aug-25 11:01:15 1016.600 29.5 38 13.7         152.29
2010-Aug-25 12:01:19 1016.700 32.4 27 10.8         152.29
2010-Aug-25 13:01:17 1016.500 34.1 23 9.8         152.29
2010-Aug-25 14:01:16 1016.300 35.6 20 9.2         152.29
2010-Aug-25 15:01:14 1016.000 34.4 21 8.8         152.29
2010-Aug-25 16:01:17 1015.400 35.9 20 9.5         152.29
2010-Aug-25 17:01:38 1015.100 35.6 21 9.8         152.29
2010-Aug-25 18:01:37 1015.200 34.3 23 10.0         152.29
2010-Aug-25 19:01:40 1015.400 33.1 27 11.4         152.29
2010-Aug-25 20:01:34 1015.700 29.2 37 13.0         152.29
2010-Aug-25 21:01:16 1015.800 26.3 46 13.7         152.29
2010-Aug-25 22:01:14 1016.600 24.1 51 13.4         152.29
2010-Aug-25 23:01:13 1017.400 20.8 63 13.5         152.29

Temperatura Máxima:35°    Temperatura Mínima:12°
Presión Máxima:1017.400 Hpa    Presión Mínima:1015.100 Hpa


Volver